Accueil
METAR-TAF:

METAR-TAF

Aéroports :

Liberal, Kansas, États-Unis

latitude: 37-03N, longitude: 100-58W, altitude: 879 m

Observation

Le bulletin a été fait il y a 26 minutes, à 20:56 UTC
Vent 10 kt de sud
Température 28°C
Humidité 48%
Pression 1019 hPa
Visibilité: 16.1 km
Ciel clair

METAR: KLBL 222056Z AUTO 18010KT 10SM CLR 28/16 A3008 RMK AO2 SLP158 6//// T02830156 58017 PNO $

Heure: 16:22 (21:22 UTC)


TAF: absent

Observations et prévisions météorologiques de plus de 4000 aéroports (messages METAR et TAF).

Les stations disponibles sont représentées par des disques jaunes et rouges sur la carte.

Passer la souris dessus pour voir le nom de la station.

Cliquer dessus pour voir les observations et prévisions météorologiques.

Pour changer de carte: cliquez sur les boutons verts avec une croix noire pour zoomer, sur le bouton vert avec un tiret pour effectuer un zoom arrière, ou sur les flèches vertes pour les cartes adjacentes.


METAR-TAF: